sensor_id;sensor_type;location;lat;lon;timestamp;temperature;humidity
75357;HTU21D;63946;51.986;5.930;2024-02-23T00:02:24;6.21;77.08
75357;HTU21D;63946;51.986;5.930;2024-02-23T00:04:53;6.24;77.20
75357;HTU21D;63946;51.986;5.930;2024-02-23T00:07:22;6.24;77.20
75357;HTU21D;63946;51.986;5.930;2024-02-23T00:09:51;6.28;77.18
75357;HTU21D;63946;51.986;5.930;2024-02-23T00:12:20;6.29;77.12
75357;HTU21D;63946;51.986;5.930;2024-02-23T00:14:49;6.31;76.96
75357;HTU21D;63946;51.986;5.930;2024-02-23T00:17:20;6.31;76.65
75357;HTU21D;63946;51.986;5.930;2024-02-23T00:19:49;6.34;76.70
75357;HTU21D;63946;51.986;5.930;2024-02-23T00:22:21;6.34;76.82
75357;HTU21D;63946;51.986;5.930;2024-02-23T00:24:51;6.30;76.99
75357;HTU21D;63946;51.986;5.930;2024-02-23T00:27:20;6.33;77.20
75357;HTU21D;63946;51.986;5.930;2024-02-23T00:29:49;6.36;77.29
75357;HTU21D;63946;51.986;5.930;2024-02-23T00:32:18;6.40;77.27
75357;HTU21D;63946;51.986;5.930;2024-02-23T00:34:47;6.39;77.25
75357;HTU21D;63946;51.986;5.930;2024-02-23T00:37:18;6.38;77.31
75357;HTU21D;63946;51.986;5.930;2024-02-23T00:39:49;6.37;77.22
75357;HTU21D;63946;51.986;5.930;2024-02-23T00:42:18;6.36;77.21
75357;HTU21D;63946;51.986;5.930;2024-02-23T00:44:48;6.38;77.22
75357;HTU21D;63946;51.986;5.930;2024-02-23T00:47:19;6.35;77.18
75357;HTU21D;63946;51.986;5.930;2024-02-23T00:49:48;6.34;77.15
75357;HTU21D;63946;51.986;5.930;2024-02-23T00:52:17;6.30;77.16
75357;HTU21D;63946;51.986;5.930;2024-02-23T00:54:46;6.34;77.18
75357;HTU21D;63946;51.986;5.930;2024-02-23T00:57:15;6.34;77.00
75357;HTU21D;63946;51.986;5.930;2024-02-23T00:59:47;6.26;76.76
75357;HTU21D;63946;51.986;5.930;2024-02-23T01:02:16;6.20;76.75
75357;HTU21D;63946;51.986;5.930;2024-02-23T01:04:45;6.11;76.97
75357;HTU21D;63946;51.986;5.930;2024-02-23T01:07:14;6.11;77.17
75357;HTU21D;63946;51.986;5.930;2024-02-23T01:09:43;6.15;77.13
75357;HTU21D;63946;51.986;5.930;2024-02-23T01:12:12;6.21;77.12
75357;HTU21D;63946;51.986;5.930;2024-02-23T01:14:43;6.28;77.17
75357;HTU21D;63946;51.986;5.930;2024-02-23T01:17:16;6.34;77.05
75357;HTU21D;63946;51.986;5.930;2024-02-23T01:19:45;6.36;77.14
75357;HTU21D;63946;51.986;5.930;2024-02-23T01:22:14;6.40;77.15
75357;HTU21D;63946;51.986;5.930;2024-02-23T01:24:44;6.38;77.14
75357;HTU21D;63946;51.986;5.930;2024-02-23T01:27:14;6.38;77.22
75357;HTU21D;63946;51.986;5.930;2024-02-23T01:29:44;6.42;77.34
75357;HTU21D;63946;51.986;5.930;2024-02-23T01:32:13;6.45;77.25
75357;HTU21D;63946;51.986;5.930;2024-02-23T01:34:42;6.46;77.21
75357;HTU21D;63946;51.986;5.930;2024-02-23T01:37:11;6.46;77.11
75357;HTU21D;63946;51.986;5.930;2024-02-23T01:39:40;6.44;77.15
75357;HTU21D;63946;51.986;5.930;2024-02-23T01:42:09;6.43;77.14
75357;HTU21D;63946;51.986;5.930;2024-02-23T01:44:41;6.45;77.16
75357;HTU21D;63946;51.986;5.930;2024-02-23T01:47:10;6.45;77.21
75357;HTU21D;63946;51.986;5.930;2024-02-23T01:49:41;6.45;77.15
75357;HTU21D;63946;51.986;5.930;2024-02-23T01:52:11;6.43;77.05
75357;HTU21D;63946;51.986;5.930;2024-02-23T01:54:40;6.39;77.09
75357;HTU21D;63946;51.986;5.930;2024-02-23T01:57:10;6.36;76.99
75357;HTU21D;63946;51.986;5.930;2024-02-23T01:59:40;6.34;77.05
75357;HTU21D;63946;51.986;5.930;2024-02-23T02:02:09;6.31;77.05
75357;HTU21D;63946;51.986;5.930;2024-02-23T02:04:38;6.26;77.11
75357;HTU21D;63946;51.986;5.930;2024-02-23T02:07:07;6.28;77.08
75357;HTU21D;63946;51.986;5.930;2024-02-23T02:09:36;6.23;76.87
75357;HTU21D;63946;51.986;5.930;2024-02-23T02:12:05;6.22;76.96
75357;HTU21D;63946;51.986;5.930;2024-02-23T02:14:34;6.20;76.90
75357;HTU21D;63946;51.986;5.930;2024-02-23T02:17:03;6.20;76.80
75357;HTU21D;63946;51.986;5.930;2024-02-23T02:19:33;6.20;76.80
75357;HTU21D;63946;51.986;5.930;2024-02-23T02:22:04;6.21;76.73
75357;HTU21D;63946;51.986;5.930;2024-02-23T02:24:33;6.19;76.69
75357;HTU21D;63946;51.986;5.930;2024-02-23T02:27:02;6.17;76.66
75357;HTU21D;63946;51.986;5.930;2024-02-23T02:29:36;6.15;76.76
75357;HTU21D;63946;51.986;5.930;2024-02-23T02:32:07;6.10;76.62
75357;HTU21D;63946;51.986;5.930;2024-02-23T02:34:36;6.11;76.57
75357;HTU21D;63946;51.986;5.930;2024-02-23T02:37:05;6.08;76.57
75357;HTU21D;63946;51.986;5.930;2024-02-23T02:39:34;6.08;76.63
75357;HTU21D;63946;51.986;5.930;2024-02-23T02:42:03;6.09;76.42
75357;HTU21D;63946;51.986;5.930;2024-02-23T02:44:32;6.10;76.41
75357;HTU21D;63946;51.986;5.930;2024-02-23T02:47:01;6.12;76.19
75357;HTU21D;63946;51.986;5.930;2024-02-23T02:49:30;6.11;76.12
75357;HTU21D;63946;51.986;5.930;2024-02-23T02:51:59;6.12;76.13
75357;HTU21D;63946;51.986;5.930;2024-02-23T02:54:28;6.11;76.09
75357;HTU21D;63946;51.986;5.930;2024-02-23T02:56:59;6.11;75.99
75357;HTU21D;63946;51.986;5.930;2024-02-23T02:59:28;6.12;75.77
75357;HTU21D;63946;51.986;5.930;2024-02-23T03:01:58;6.11;75.86
75357;HTU21D;63946;51.986;5.930;2024-02-23T03:04:32;6.11;75.83
75357;HTU21D;63946;51.986;5.930;2024-02-23T03:07:01;6.10;75.76
75357;HTU21D;63946;51.986;5.930;2024-02-23T03:09:30;6.11;75.63
75357;HTU21D;63946;51.986;5.930;2024-02-23T03:12:02;6.13;75.55
75357;HTU21D;63946;51.986;5.930;2024-02-23T03:14:31;6.14;75.56
75357;HTU21D;63946;51.986;5.930;2024-02-23T03:17:00;6.15;75.55
75357;HTU21D;63946;51.986;5.930;2024-02-23T03:19:29;6.14;75.49
75357;HTU21D;63946;51.986;5.930;2024-02-23T03:21:59;6.11;75.41
75357;HTU21D;63946;51.986;5.930;2024-02-23T03:24:28;6.13;75.28
75357;HTU21D;63946;51.986;5.930;2024-02-23T03:26:57;6.12;75.02
75357;HTU21D;63946;51.986;5.930;2024-02-23T03:29:26;6.10;74.98
75357;HTU21D;63946;51.986;5.930;2024-02-23T03:31:56;6.10;74.90
75357;HTU21D;63946;51.986;5.930;2024-02-23T03:34:27;6.12;74.86
75357;HTU21D;63946;51.986;5.930;2024-02-23T03:36:56;6.11;74.56
75357;HTU21D;63946;51.986;5.930;2024-02-23T03:39:32;6.10;74.82
75357;HTU21D;63946;51.986;5.930;2024-02-23T03:42:03;6.12;74.80
75357;HTU21D;63946;51.986;5.930;2024-02-23T03:44:38;6.14;74.82
75357;HTU21D;63946;51.986;5.930;2024-02-23T03:47:09;6.15;74.70
75357;HTU21D;63946;51.986;5.930;2024-02-23T03:49:38;6.16;74.66
75357;HTU21D;63946;51.986;5.930;2024-02-23T03:52:12;6.19;74.64
75357;HTU21D;63946;51.986;5.930;2024-02-23T03:54:46;6.17;74.54
75357;HTU21D;63946;51.986;5.930;2024-02-23T03:57:20;6.13;74.66
75357;HTU21D;63946;51.986;5.930;2024-02-23T03:59:52;6.10;74.81
75357;HTU21D;63946;51.986;5.930;2024-02-23T04:02:31;6.11;74.80
75357;HTU21D;63946;51.986;5.930;2024-02-23T04:05:00;6.11;74.67
75357;HTU21D;63946;51.986;5.930;2024-02-23T04:07:33;6.09;74.82
75357;HTU21D;63946;51.986;5.930;2024-02-23T04:10:08;6.07;74.89
75357;HTU21D;63946;51.986;5.930;2024-02-23T04:12:51;6.04;74.92
75357;HTU21D;63946;51.986;5.930;2024-02-23T04:15:25;6.01;74.70
75357;HTU21D;63946;51.986;5.930;2024-02-23T04:18:38;6.02;74.77
75357;HTU21D;63946;51.986;5.930;2024-02-23T04:21:08;6.01;74.68
75357;HTU21D;63946;51.986;5.930;2024-02-23T04:23:54;6.00;74.87
75357;HTU21D;63946;51.986;5.930;2024-02-23T04:26:23;5.99;74.85
75357;HTU21D;63946;51.986;5.930;2024-02-23T04:28:54;5.97;74.83
75357;HTU21D;63946;51.986;5.930;2024-02-23T04:31:36;5.95;74.94
75357;HTU21D;63946;51.986;5.930;2024-02-23T04:34:27;5.95;74.96
75357;HTU21D;63946;51.986;5.930;2024-02-23T04:37:42;5.97;75.00
75357;HTU21D;63946;51.986;5.930;2024-02-23T04:40:18;6.01;74.79
75357;HTU21D;63946;51.986;5.930;2024-02-23T04:42:47;6.01;74.80
75357;HTU21D;63946;51.986;5.930;2024-02-23T04:45:23;6.04;74.73
75357;HTU21D;63946;51.986;5.930;2024-02-23T04:48:02;6.05;74.78
75357;HTU21D;63946;51.986;5.930;2024-02-23T04:50:38;6.07;74.73
75357;HTU21D;63946;51.986;5.930;2024-02-23T04:53:08;6.07;74.83
75357;HTU21D;63946;51.986;5.930;2024-02-23T04:55:42;6.06;74.76
75357;HTU21D;63946;51.986;5.930;2024-02-23T04:58:12;6.08;74.80
75357;HTU21D;63946;51.986;5.930;2024-02-23T05:03:49;6.12;74.54
75357;HTU21D;63946;51.986;5.930;2024-02-23T05:10:01;6.13;74.55
75357;HTU21D;63946;51.986;5.930;2024-02-23T05:13:14;6.14;74.49
75357;HTU21D;63946;51.986;5.930;2024-02-23T05:15:59;6.15;74.49
75357;HTU21D;63946;51.986;5.930;2024-02-23T05:18:45;6.22;74.47
75357;HTU21D;63946;51.986;5.930;2024-02-23T05:21:26;6.26;74.49
75357;HTU21D;63946;51.986;5.930;2024-02-23T05:24:01;6.28;74.42
75357;HTU21D;63946;51.986;5.930;2024-02-23T05:27:00;6.29;74.31
75357;HTU21D;63946;51.986;5.930;2024-02-23T05:29:46;6.26;74.37
75357;HTU21D;63946;51.986;5.930;2024-02-23T05:35:49;6.28;74.25
75357;HTU21D;63946;51.986;5.930;2024-02-23T05:38:31;6.31;74.22
75357;HTU21D;63946;51.986;5.930;2024-02-23T05:41:43;6.37;74.09
75357;HTU21D;63946;51.986;5.930;2024-02-23T05:44:48;6.38;73.96
75357;HTU21D;63946;51.986;5.930;2024-02-23T05:47:28;6.36;74.02
75357;HTU21D;63946;51.986;5.930;2024-02-23T05:50:35;6.34;73.89
75357;HTU21D;63946;51.986;5.930;2024-02-23T05:53:31;6.36;73.85
75357;HTU21D;63946;51.986;5.930;2024-02-23T05:56:12;6.37;73.82
75357;HTU21D;63946;51.986;5.930;2024-02-23T05:58:54;6.42;73.67
75357;HTU21D;63946;51.986;5.930;2024-02-23T06:01:36;6.42;73.71
75357;HTU21D;63946;51.986;5.930;2024-02-23T06:04:37;6.44;73.77
75357;HTU21D;63946;51.986;5.930;2024-02-23T06:14:46;6.41;73.29
75357;HTU21D;63946;51.986;5.930;2024-02-23T06:27:48;6.42;73.30
75357;HTU21D;63946;51.986;5.930;2024-02-23T06:30:23;6.41;73.27
75357;HTU21D;63946;51.986;5.930;2024-02-23T06:33:53;6.45;73.05
75357;HTU21D;63946;51.986;5.930;2024-02-23T06:40:32;6.40;72.98
75357;HTU21D;63946;51.986;5.930;2024-02-23T06:44:02;6.44;73.00
75357;HTU21D;63946;51.986;5.930;2024-02-23T06:46:51;6.50;72.95
75357;HTU21D;63946;51.986;5.930;2024-02-23T06:49:29;6.50;73.07
75357;HTU21D;63946;51.986;5.930;2024-02-23T06:55:36;6.53;72.88
75357;HTU21D;63946;51.986;5.930;2024-02-23T06:58:44;6.56;72.83
75357;HTU21D;63946;51.986;5.930;2024-02-23T07:02:24;6.56;72.54
75357;HTU21D;63946;51.986;5.930;2024-02-23T07:05:19;6.59;72.72
75357;HTU21D;63946;51.986;5.930;2024-02-23T07:08:12;6.60;72.51
75357;HTU21D;63946;51.986;5.930;2024-02-23T07:10:50;6.63;72.38
75357;HTU21D;63946;51.986;5.930;2024-02-23T07:17:05;6.63;72.19
75357;HTU21D;63946;51.986;5.930;2024-02-23T07:24:25;6.66;71.74
75357;HTU21D;63946;51.986;5.930;2024-02-23T07:31:20;6.78;71.43
75357;HTU21D;63946;51.986;5.930;2024-02-23T07:38:11;6.76;70.98
75357;HTU21D;63946;51.986;5.930;2024-02-23T07:41:04;6.83;71.00
75357;HTU21D;63946;51.986;5.930;2024-02-23T08:42:43;7.25;68.28
75357;HTU21D;63946;51.986;5.930;2024-02-23T10:04:27;8.01;67.32
75357;HTU21D;63946;51.986;5.930;2024-02-23T10:21:02;8.08;67.16
75357;HTU21D;63946;51.986;5.930;2024-02-23T11:09:48;8.14;68.17
75357;HTU21D;63946;51.986;5.930;2024-02-23T15:48:00;8.90;69.05
75357;HTU21D;63946;51.986;5.930;2024-02-23T15:50:30;8.92;69.16
75357;HTU21D;63946;51.986;5.930;2024-02-23T15:53:47;8.93;69.34
75357;HTU21D;63946;51.986;5.930;2024-02-23T16:48:42;8.41;70.03
75357;HTU21D;63946;51.986;5.930;2024-02-23T16:54:57;8.34;70.07
75357;HTU21D;63946;51.986;5.930;2024-02-23T16:57:42;8.30;69.91
75357;HTU21D;63946;51.986;5.930;2024-02-23T17:07:35;8.18;70.07
75357;HTU21D;63946;51.986;5.930;2024-02-23T17:10:42;8.19;70.10
75357;HTU21D;63946;51.986;5.930;2024-02-23T17:13:38;8.20;70.01
75357;HTU21D;63946;51.986;5.930;2024-02-23T17:16:23;8.20;69.87
75357;HTU21D;63946;51.986;5.930;2024-02-23T17:19:39;8.20;69.76
75357;HTU21D;63946;51.986;5.930;2024-02-23T17:22:19;8.20;69.77
75357;HTU21D;63946;51.986;5.930;2024-02-23T17:24:52;8.21;69.59
75357;HTU21D;63946;51.986;5.930;2024-02-23T17:27:29;8.22;69.65
75357;HTU21D;63946;51.986;5.930;2024-02-23T17:30:12;8.21;69.38
75357;HTU21D;63946;51.986;5.930;2024-02-23T17:33:15;8.24;69.39
75357;HTU21D;63946;51.986;5.930;2024-02-23T17:35:51;8.27;69.30
75357;HTU21D;63946;51.986;5.930;2024-02-23T17:38:25;8.30;69.15
75357;HTU21D;63946;51.986;5.930;2024-02-23T17:40:54;8.27;68.97
75357;HTU21D;63946;51.986;5.930;2024-02-23T17:43:33;8.28;68.94
75357;HTU21D;63946;51.986;5.930;2024-02-23T17:46:16;8.29;68.81
75357;HTU21D;63946;51.986;5.930;2024-02-23T17:48:45;8.29;68.73
75357;HTU21D;63946;51.986;5.930;2024-02-23T17:51:14;8.34;68.73
75357;HTU21D;63946;51.986;5.930;2024-02-23T17:53:54;8.41;68.56
75357;HTU21D;63946;51.986;5.930;2024-02-23T17:57:03;8.41;68.25
75357;HTU21D;63946;51.986;5.930;2024-02-23T18:00:23;8.39;68.23
75357;HTU21D;63946;51.986;5.930;2024-02-23T18:03:32;8.36;68.01
75357;HTU21D;63946;51.986;5.930;2024-02-23T18:06:53;8.37;68.07
75357;HTU21D;63946;51.986;5.930;2024-02-23T18:10:14;8.35;67.88
75357;HTU21D;63946;51.986;5.930;2024-02-23T18:37:42;8.30;66.70
75357;HTU21D;63946;51.986;5.930;2024-02-23T18:48:25;8.29;66.72
75357;HTU21D;63946;51.986;5.930;2024-02-23T18:51:29;8.28;66.75
75357;HTU21D;63946;51.986;5.930;2024-02-23T18:54:24;8.28;66.51
75357;HTU21D;63946;51.986;5.930;2024-02-23T19:04:26;8.24;66.63
75357;HTU21D;63946;51.986;5.930;2024-02-23T19:07:27;8.21;66.70
75357;HTU21D;63946;51.986;5.930;2024-02-23T19:13:48;8.15;66.81
75357;HTU21D;63946;51.986;5.930;2024-02-23T19:16:55;8.15;67.03
75357;HTU21D;63946;51.986;5.930;2024-02-23T19:20:08;8.11;67.18
75357;HTU21D;63946;51.986;5.930;2024-02-23T19:23:15;8.11;67.55
75357;HTU21D;63946;51.986;5.930;2024-02-23T19:26:38;8.07;67.68
75357;HTU21D;63946;51.986;5.930;2024-02-23T19:29:46;8.02;67.80
75357;HTU21D;63946;51.986;5.930;2024-02-23T19:33:00;7.97;68.05
75357;HTU21D;63946;51.986;5.930;2024-02-23T19:36:05;7.92;68.33
75357;HTU21D;63946;51.986;5.930;2024-02-23T19:39:05;7.94;68.34
75357;HTU21D;63946;51.986;5.930;2024-02-23T19:42:05;7.90;68.52
75357;HTU21D;63946;51.986;5.930;2024-02-23T19:45:09;7.86;68.65
75357;HTU21D;63946;51.986;5.930;2024-02-23T19:47:52;7.88;68.77
75357;HTU21D;63946;51.986;5.930;2024-02-23T19:50:45;7.91;68.73
75357;HTU21D;63946;51.986;5.930;2024-02-23T20:07:25;8.04;68.96
75357;HTU21D;63946;51.986;5.930;2024-02-23T20:10:21;8.02;69.19
